Nearby METAR Reports

 

KSJC - San Jose, California, USA
Distance from station: NO 14km
Uppdaterad: 2020-09-28 11:53
Klart
Klart
 Vind från OSO
Vind: OSO 6 km/h
Temperatur: 21°C
Daggpunkt: 10°C
Luftfuktighet: 50%
Barometer: 1011.9 hPa
Clouds: Klart
Visibility: 16 km
2020/09/28 09:53 KSJC 280953Z AUTO 11003KT 10SM CLR 21/10 A2988 RMK AO2 SLP116 T02060100 $
KNUQ - Moffett Nas/Mtn, California, USA
Distance from station: N 14km
Uppdaterad: 2020-09-28 12:15
Klart
Klart
 Vind från calm
Vind: Vindstilla
Temperatur: 20°C
Daggpunkt: 10°C
Luftfuktighet: 53%
Barometer: 1011.5 hPa
Clouds: Klart
Visibility: 16 km
2020/09/28 10:15 KNUQ 281015Z AUTO 00000KT 10SM CLR 20/10 A2987 RMK AO2
 
KPAO - Palo Alto, California, USA
Distance from station: NNV 23km
Uppdaterad: 2020-09-28 00:47
NOT Current
Klart
Klart
 Vind från NNV
Vind: NNV 17 km/h
Temperatur: 33°C
Daggpunkt: 9°C
Luftfuktighet: 23%
Barometer: 1009.8 hPa
Clouds: Klart
Visibility: 16 km
2020/09/27 22:47 KPAO 272247Z 34009KT 10SM SKC 33/09 A2982
KRHV - San Jose/Reid, California, USA
Distance from station: ONO 19km
Uppdaterad: 2020-09-28 06:50
NOT Current
Klart
Klart
 Vind från varies
Vind: varies 7 km/h
Temperatur: 26°C
Daggpunkt: 12°C
Luftfuktighet: 42%
Barometer: 1010.8 hPa
Clouds: Klart
Visibility: 16 km
2020/09/28 04:50 KRHV 280450Z VRB04KT 10SM SKC 26/12 A2985 RMK LAST
 
KOAK - Oakland, California, USA
Distance from station: NNV 50km
Uppdaterad: 2020-09-28 11:53
Few Clouds
Few Clouds
 Vind från VSV
Vind: VSV 6 km/h
Temperatur: 23°C
Daggpunkt: 17°C
Luftfuktighet: 69%
Barometer: 1011.5 hPa
Clouds: Few Clouds
Visibility: 16 km
Cloud details: Few Clouds 7620 m
2020/09/28 09:53 KOAK 280953Z 24003KT 10SM FEW250 23/17 A2987 RMK AO2 SLP113 T02280172
KSQL - San Carlos Airpo, California, USA
Distance from station: NV 34km
Uppdaterad: 2020-09-28 12:15
Klart
Klart
 Vind från calm
Vind: Vindstilla
Temperatur: 21°C
Daggpunkt: 10°C
Luftfuktighet: 50%
Barometer: 1011.9 hPa
Clouds: Klart
Visibility: 16 km
2020/09/28 10:15 KSQL 281015Z AUTO 00000KT 10SM CLR 21/10 A2988 RMK AO2
 
KSFO - San Francisco, California, USA
Distance from station: NV 49km
Uppdaterad: 2020-09-28 11:56
Klart
Klart
 Vind från SV
Vind: SV 7 km/h
Temperatur: 23°C
Daggpunkt: 8°C
Luftfuktighet: 38%
Barometer: 1011.2 hPa
Clouds: Klart
Visibility: 16 km
2020/09/28 09:56 KSFO 280956Z 22004KT 10SM CLR 23/08 A2986 RMK AO2 SLP113 T02330083
KE16 - San Martin, California, USA
Distance from station: OSO 43km
Uppdaterad: 2020-09-28 12:10

 Vind från calm
Vind: Vindstilla
Temperatur: 17°C
Daggpunkt: 9°C
Luftfuktighet: 59%
Barometer: 1012.9 hPa
Visibility: 16 km
2020/09/28 10:10 KE16 281010Z AUTO 00000KT 10SM 17/09 A2991 RMK AO2 PWINO PNO
 
KWVI - Watsonville, California, USA
Distance from station: SSO 44km
Uppdaterad: 2020-09-28 11:53
Klart
Klart
 Vind från N
Vind: N 6 km/h
Temperatur: 16°C
Daggpunkt: 12°C
Luftfuktighet: 77%
Barometer: 1011.9 hPa
Clouds: Klart
Visibility: 16 km
2020/09/28 09:53 KWVI 280953Z AUTO 01003KT 10SM CLR 16/12 A2988 RMK AO2 SLP116 T01560117
KHAF - Half Moon Bay, California, USA
Distance from station: VNV 50km
Uppdaterad: 2020-09-28 12:15
Haze, Genommulet
Haze, Genommulet
 Vind från calm
Vind: Vindstilla
Temperatur: 15°C
Daggpunkt: 13°C
Luftfuktighet: 88%
Barometer: 1011.9 hPa
Summering: Haze
Clouds: Genommulet
Visibility: 8 km
Cloud details: Övervägande molnigt 91 m
Genommulet 3353 m
2020/09/28 10:15 KHAF 281015Z AUTO 00000KT 5SM HZ BKN003 OVC110 15/13 A2988 RMK AO2
 
KHWD - Hayward, California, USA
Distance from station: N 44km
Uppdaterad: 2020-09-28 11:54
Klart
Klart
 Vind från ONO
Vind: ONO 6 km/h
Temperatur: 23°C
Daggpunkt: 7°C
Luftfuktighet: 36%
Barometer: 1011.2 hPa
Clouds: Klart
Visibility: 16 km
2020/09/28 09:54 KHWD 280954Z 06003KT 10SM CLR 23/07 A2986 RMK AO2 SLP120 T02280072
KLVK - Livermore, California, USA
Distance from station: NNO 51km
Uppdaterad: 2020-09-28 11:53
Klart
Klart
 Vind från O
Vind: O 6 km/h
Temperatur: 19°C
Daggpunkt: 7°C
Luftfuktighet: 46%
Barometer: 1012.5 hPa
Clouds: Klart
Visibility: 16 km
2020/09/28 09:53 KLVK 280953Z AUTO 10003KT 10SM CLR 19/07 A2990 RMK AO2 SLP119 T01890072